Metar værinformasjon om luftfart     EFOU Oulu Airport
Temperatur
23°F Temperatur
21°F Duggpunkt
93% Luftfuktighet



Vind
8 MPT
13 KM/T
4 M/S
7 KNP



330°
NNV
Nåværende forhold

Lys Byger, Snø Lys Byger, Snø
Trykk 1001.92 (hPa) - 29.59 (inHg)
Sikt 6.2 (mil) - 10 (km)
Flyplass
Flyplass-kode EFOU

Plassering: Oulu Airport
Avstand: 83 (mi)

Metar:
EFOU 020650Z AUTO 33007KT 9999 -SHSN OVC018/// M05/M06 Q1002 REFZDZ

Tid: 02-02-2023 08:50 EET